sensor_id;sensor_type;location;lat;lon;timestamp;temperature;humidity
67893;DHT22;54688;52.376;16.744;2022-07-23T00:00:06;16.9;71
67893;DHT22;54688;52.376;16.744;2022-07-23T00:03:38;16.9;71.6
67893;DHT22;54688;52.376;16.744;2022-07-23T00:06:41;16.8;72.1
67893;DHT22;54688;52.376;16.744;2022-07-23T00:09:43;16.8;71.7
67893;DHT22;54688;52.376;16.744;2022-07-23T00:12:45;16.7;71.5
67893;DHT22;54688;52.376;16.744;2022-07-23T00:15:48;16.7;71.8
67893;DHT22;54688;52.376;16.744;2022-07-23T00:18:50;16.7;71.7
67893;DHT22;54688;52.376;16.744;2022-07-23T00:21:52;16.6;72
67893;DHT22;54688;52.376;16.744;2022-07-23T00:24:54;16.6;72.3
67893;DHT22;54688;52.376;16.744;2022-07-23T00:27:56;16.6;71.9
67893;DHT22;54688;52.376;16.744;2022-07-23T00:30:58;16.5;72.1
67893;DHT22;54688;52.376;16.744;2022-07-23T00:34:00;16.5;72.3
67893;DHT22;54688;52.376;16.744;2022-07-23T00:37:02;16.5;72.3
67893;DHT22;54688;52.376;16.744;2022-07-23T00:40:05;16.4;72.4
67893;DHT22;54688;52.376;16.744;2022-07-23T00:43:08;16.4;73
67893;DHT22;54688;52.376;16.744;2022-07-23T00:46:10;16.3;72.9
67893;DHT22;54688;52.376;16.744;2022-07-23T00:49:12;16.3;73.1
67893;DHT22;54688;52.376;16.744;2022-07-23T00:52:15;16.3;73.4
67893;DHT22;54688;52.376;16.744;2022-07-23T00:55:17;16.3;73.4
67893;DHT22;54688;52.376;16.744;2022-07-23T00:58:19;16.3;73.3
67893;DHT22;54688;52.376;16.744;2022-07-23T01:01:22;16.2;73
67893;DHT22;54688;52.376;16.744;2022-07-23T01:04:26;16.2;73
67893;DHT22;54688;52.376;16.744;2022-07-23T01:07:28;16.1;73.4
67893;DHT22;54688;52.376;16.744;2022-07-23T01:10:30;16.1;73.8
67893;DHT22;54688;52.376;16.744;2022-07-23T01:13:33;16.1;74
67893;DHT22;54688;52.376;16.744;2022-07-23T01:16:35;16.1;73.8
67893;DHT22;54688;52.376;16.744;2022-07-23T01:19:37;16;73.5
67893;DHT22;54688;52.376;16.744;2022-07-23T01:22:39;15.9;73.6
67893;DHT22;54688;52.376;16.744;2022-07-23T01:25:47;15.9;74.3
67893;DHT22;54688;52.376;16.744;2022-07-23T01:28:49;15.9;74.5
67893;DHT22;54688;52.376;16.744;2022-07-23T01:31:52;15.9;74.5
67893;DHT22;54688;52.376;16.744;2022-07-23T01:34:54;15.9;74.8
67893;DHT22;54688;52.376;16.744;2022-07-23T01:37:55;15.8;75
67893;DHT22;54688;52.376;16.744;2022-07-23T01:40:57;15.8;74.7
67893;DHT22;54688;52.376;16.744;2022-07-23T01:43:59;15.8;74.5
67893;DHT22;54688;52.376;16.744;2022-07-23T01:47:02;15.8;74.6
67893;DHT22;54688;52.376;16.744;2022-07-23T01:50:05;15.7;74.6
67893;DHT22;54688;52.376;16.744;2022-07-23T01:53:09;15.7;74.7
67893;DHT22;54688;52.376;16.744;2022-07-23T01:56:11;15.7;75.2
67893;DHT22;54688;52.376;16.744;2022-07-23T01:59:13;15.7;75.4
67893;DHT22;54688;52.376;16.744;2022-07-23T02:02:16;15.7;75.5
67893;DHT22;54688;52.376;16.744;2022-07-23T02:05:19;15.6;75.4
67893;DHT22;54688;52.376;16.744;2022-07-23T02:08:22;15.6;76.7
67893;DHT22;54688;52.376;16.744;2022-07-23T02:11:24;15.6;75.7
67893;DHT22;54688;52.376;16.744;2022-07-23T02:14:27;15.5;75.9
67893;DHT22;54688;52.376;16.744;2022-07-23T02:17:29;15.5;76.3
67893;DHT22;54688;52.376;16.744;2022-07-23T02:20:32;15.5;76.5
67893;DHT22;54688;52.376;16.744;2022-07-23T02:23:34;15.5;76.5
67893;DHT22;54688;52.376;16.744;2022-07-23T02:26:36;15.5;76.6
67893;DHT22;54688;52.376;16.744;2022-07-23T02:29:38;15.5;76.4
67893;DHT22;54688;52.376;16.744;2022-07-23T02:32:41;15.5;76.6
67893;DHT22;54688;52.376;16.744;2022-07-23T02:35:43;15.5;76.9
67893;DHT22;54688;52.376;16.744;2022-07-23T02:38:44;15.4;76.7
67893;DHT22;54688;52.376;16.744;2022-07-23T02:41:47;15.4;76.5
67893;DHT22;54688;52.376;16.744;2022-07-23T02:44:49;15.4;76.7
67893;DHT22;54688;52.376;16.744;2022-07-23T02:47:51;15.3;76.4
67893;DHT22;54688;52.376;16.744;2022-07-23T02:50:54;15.3;76.3
67893;DHT22;54688;52.376;16.744;2022-07-23T02:53:56;15.3;76.3
67893;DHT22;54688;52.376;16.744;2022-07-23T02:56:58;15.3;77.1
67893;DHT22;54688;52.376;16.744;2022-07-23T03:00:00;15.2;77.1
67893;DHT22;54688;52.376;16.744;2022-07-23T03:03:02;15.2;77.1
67893;DHT22;54688;52.376;16.744;2022-07-23T03:06:06;15.2;77.3
67893;DHT22;54688;52.376;16.744;2022-07-23T03:09:08;15.2;77.7
67893;DHT22;54688;52.376;16.744;2022-07-23T03:12:11;15.2;77.8
67893;DHT22;54688;52.376;16.744;2022-07-23T03:15:13;15.1;77.8
67893;DHT22;54688;52.376;16.744;2022-07-23T03:18:15;15.1;78.1
67893;DHT22;54688;52.376;16.744;2022-07-23T03:21:17;15.1;78.4
67893;DHT22;54688;52.376;16.744;2022-07-23T03:24:20;15.1;78.4
67893;DHT22;54688;52.376;16.744;2022-07-23T03:27:23;15.1;78.4
67893;DHT22;54688;52.376;16.744;2022-07-23T03:30:26;15.1;78.2
67893;DHT22;54688;52.376;16.744;2022-07-23T03:33:28;15.1;78.1
67893;DHT22;54688;52.376;16.744;2022-07-23T03:36:30;15.1;77.8
67893;DHT22;54688;52.376;16.744;2022-07-23T03:39:32;15.1;78.3
67893;DHT22;54688;52.376;16.744;2022-07-23T03:42:35;15.1;78.5
67893;DHT22;54688;52.376;16.744;2022-07-23T03:45:37;15.2;78.3
67893;DHT22;54688;52.376;16.744;2022-07-23T03:48:39;15.2;78.3
67893;DHT22;54688;52.376;16.744;2022-07-23T03:51:41;15.2;78.8
67893;DHT22;54688;52.376;16.744;2022-07-23T03:54:44;15.3;79.2
67893;DHT22;54688;52.376;16.744;2022-07-23T03:57:46;15.3;79.1
67893;DHT22;54688;52.376;16.744;2022-07-23T04:00:52;15.4;78.7
67893;DHT22;54688;52.376;16.744;2022-07-23T04:03:54;15.4;78.6
67893;DHT22;54688;52.376;16.744;2022-07-23T04:06:57;15.4;78.7
67893;DHT22;54688;52.376;16.744;2022-07-23T04:09:59;15.4;78.9
67893;DHT22;54688;52.376;16.744;2022-07-23T04:13:01;15.5;79.1
67893;DHT22;54688;52.376;16.744;2022-07-23T04:16:04;15.5;79.1
67893;DHT22;54688;52.376;16.744;2022-07-23T04:19:06;15.6;79.1
67893;DHT22;54688;52.376;16.744;2022-07-23T04:22:09;15.6;78.9
67893;DHT22;54688;52.376;16.744;2022-07-23T04:25:11;15.7;78.9
67893;DHT22;54688;52.376;16.744;2022-07-23T04:28:13;15.7;78.6
67893;DHT22;54688;52.376;16.744;2022-07-23T04:31:16;15.8;78.7
67893;DHT22;54688;52.376;16.744;2022-07-23T04:34:18;15.8;78.9
67893;DHT22;54688;52.376;16.744;2022-07-23T04:37:20;15.9;78.6
67893;DHT22;54688;52.376;16.744;2022-07-23T04:40:22;16;78.5
67893;DHT22;54688;52.376;16.744;2022-07-23T04:43:24;16.1;78.5
67893;DHT22;54688;52.376;16.744;2022-07-23T04:46:26;16.1;78.3
67893;DHT22;54688;52.376;16.744;2022-07-23T04:49:28;16.2;78.3
67893;DHT22;54688;52.376;16.744;2022-07-23T04:52:30;16.3;78.4
67893;DHT22;54688;52.376;16.744;2022-07-23T04:55:32;16.4;78.1
67893;DHT22;54688;52.376;16.744;2022-07-23T04:58:34;16.5;78
67893;DHT22;54688;52.376;16.744;2022-07-23T05:01:36;16.6;77.6
67893;DHT22;54688;52.376;16.744;2022-07-23T05:04:38;16.6;78.3
67893;DHT22;54688;52.376;16.744;2022-07-23T05:07:42;16.7;77.4
67893;DHT22;54688;52.376;16.744;2022-07-23T05:10:45;16.7;77.4
67893;DHT22;54688;52.376;16.744;2022-07-23T05:16:47;16.8;77.5
67893;DHT22;54688;52.376;16.744;2022-07-23T05:19:49;16.8;77.5
67893;DHT22;54688;52.376;16.744;2022-07-23T05:22:52;16.9;77.5
67893;DHT22;54688;52.376;16.744;2022-07-23T05:25:54;16.9;77.4
67893;DHT22;54688;52.376;16.744;2022-07-23T05:28:56;17;77.6
67893;DHT22;54688;52.376;16.744;2022-07-23T05:31:58;17.1;77.6
67893;DHT22;54688;52.376;16.744;2022-07-23T05:35:00;17.2;77.3
67893;DHT22;54688;52.376;16.744;2022-07-23T05:38:02;17.3;77.2
67893;DHT22;54688;52.376;16.744;2022-07-23T05:41:04;17.4;77.2
67893;DHT22;54688;52.376;16.744;2022-07-23T05:44:07;17.5;77
67893;DHT22;54688;52.376;16.744;2022-07-23T05:47:09;17.6;77.2
67893;DHT22;54688;52.376;16.744;2022-07-23T05:50:12;17.7;77
67893;DHT22;54688;52.376;16.744;2022-07-23T05:53:15;17.9;76.9
67893;DHT22;54688;52.376;16.744;2022-07-23T05:56:18;18;76.4
67893;DHT22;54688;52.376;16.744;2022-07-23T05:59:20;18.1;76.2
67893;DHT22;54688;52.376;16.744;2022-07-23T06:02:22;18.2;75.7
67893;DHT22;54688;52.376;16.744;2022-07-23T06:05:24;18.3;75.2
67893;DHT22;54688;52.376;16.744;2022-07-23T06:08:27;18.5;75
67893;DHT22;54688;52.376;16.744;2022-07-23T06:11:30;18.6;74.8
67893;DHT22;54688;52.376;16.744;2022-07-23T06:14:32;18.6;74.6
67893;DHT22;54688;52.376;16.744;2022-07-23T06:17:34;18.8;74.5
67893;DHT22;54688;52.376;16.744;2022-07-23T06:20:37;18.9;73.6
67893;DHT22;54688;52.376;16.744;2022-07-23T06:23:39;19;72.8
67893;DHT22;54688;52.376;16.744;2022-07-23T06:26:41;19.2;72.4
67893;DHT22;54688;52.376;16.744;2022-07-23T06:29:44;19.3;71.9
67893;DHT22;54688;52.376;16.744;2022-07-23T06:32:47;19.5;71.4
67893;DHT22;54688;52.376;16.744;2022-07-23T06:35:49;19.6;70.8
67893;DHT22;54688;52.376;16.744;2022-07-23T06:38:51;19.7;70.1
67893;DHT22;54688;52.376;16.744;2022-07-23T06:41:54;19.9;70.1
67893;DHT22;54688;52.376;16.744;2022-07-23T06:44:56;20;69.5
67893;DHT22;54688;52.376;16.744;2022-07-23T06:47:58;20.1;68.3
67893;DHT22;54688;52.376;16.744;2022-07-23T06:51:00;20.3;67.4
67893;DHT22;54688;52.376;16.744;2022-07-23T06:54:02;20.5;67.4
67893;DHT22;54688;52.376;16.744;2022-07-23T06:57:05;20.8;66.3
67893;DHT22;54688;52.376;16.744;2022-07-23T07:00:08;21.1;65.2
67893;DHT22;54688;52.376;16.744;2022-07-23T07:03:12;21.4;64.2
67893;DHT22;54688;52.376;16.744;2022-07-23T07:06:14;21.7;63.4
67893;DHT22;54688;52.376;16.744;2022-07-23T07:09:17;21.9;60.8
67893;DHT22;54688;52.376;16.744;2022-07-23T07:12:19;22.2;60.8
67893;DHT22;54688;52.376;16.744;2022-07-23T07:15:22;22.3;58.7
67893;DHT22;54688;52.376;16.744;2022-07-23T07:18:24;22.6;57.2
67893;DHT22;54688;52.376;16.744;2022-07-23T07:21:27;22.7;57.7
67893;DHT22;54688;52.376;16.744;2022-07-23T07:27:28;23.1;57
67893;DHT22;54688;52.376;16.744;2022-07-23T07:30:31;23.3;56.5
67893;DHT22;54688;52.376;16.744;2022-07-23T07:33:33;23.4;55.9
67893;DHT22;54688;52.376;16.744;2022-07-23T07:36:36;23.5;54.9
67893;DHT22;54688;52.376;16.744;2022-07-23T07:39:38;23.6;54.7
67893;DHT22;54688;52.376;16.744;2022-07-23T07:42:44;23.6;53.9
67893;DHT22;54688;52.376;16.744;2022-07-23T07:45:46;23.7;54.1
67893;DHT22;54688;52.376;16.744;2022-07-23T07:48:48;23.7;53.4
67893;DHT22;54688;52.376;16.744;2022-07-23T07:51:51;23.7;52.4
67893;DHT22;54688;52.376;16.744;2022-07-23T07:54:53;23.7;52.8
67893;DHT22;54688;52.376;16.744;2022-07-23T07:57:56;23.6;52.6
67893;DHT22;54688;52.376;16.744;2022-07-23T08:00:58;23.6;52
67893;DHT22;54688;52.376;16.744;2022-07-23T08:04:01;23.5;52.2
67893;DHT22;54688;52.376;16.744;2022-07-23T08:07:03;23.4;52.4
67893;DHT22;54688;52.376;16.744;2022-07-23T08:10:07;23.3;52.7
67893;DHT22;54688;52.376;16.744;2022-07-23T08:13:12;23.2;54.3
67893;DHT22;54688;52.376;16.744;2022-07-23T08:16:15;22.9;58.3
67893;DHT22;54688;52.376;16.744;2022-07-23T08:19:18;22.4;61
67893;DHT22;54688;52.376;16.744;2022-07-23T08:22:20;21.8;64.3
67893;DHT22;54688;52.376;16.744;2022-07-23T08:25:23;21.3;66.9
67893;DHT22;54688;52.376;16.744;2022-07-23T08:28:31;20.9;70.3
67893;DHT22;54688;52.376;16.744;2022-07-23T08:31:33;20.7;71.8
67893;DHT22;54688;52.376;16.744;2022-07-23T08:34:35;20.5;72.9
67893;DHT22;54688;52.376;16.744;2022-07-23T08:37:37;20.4;72.7
67893;DHT22;54688;52.376;16.744;2022-07-23T08:40:40;20.2;73.9
67893;DHT22;54688;52.376;16.744;2022-07-23T08:43:43;20.1;74.4
67893;DHT22;54688;52.376;16.744;2022-07-23T08:46:46;19.9;75.4
67893;DHT22;54688;52.376;16.744;2022-07-23T08:49:50;19.9;76.6
67893;DHT22;54688;52.376;16.744;2022-07-23T08:52:52;19.9;77.4
67893;DHT22;54688;52.376;16.744;2022-07-23T08:55:56;19.9;76.3
67893;DHT22;54688;52.376;16.744;2022-07-23T08:58:59;19.9;75.1
67893;DHT22;54688;52.376;16.744;2022-07-23T09:02:02;19.9;75.8
67893;DHT22;54688;52.376;16.744;2022-07-23T09:05:04;19.9;77.2
67893;DHT22;54688;52.376;16.744;2022-07-23T09:08:08;19.9;78.7
67893;DHT22;54688;52.376;16.744;2022-07-23T09:11:16;19.8;79.1
67893;DHT22;54688;52.376;16.744;2022-07-23T09:14:21;19.8;77.9
67893;DHT22;54688;52.376;16.744;2022-07-23T09:17:39;19.8;77.8
67893;DHT22;54688;52.376;16.744;2022-07-23T09:20:43;19.8;77.8
67893;DHT22;54688;52.376;16.744;2022-07-23T09:23:46;19.8;77.9
67893;DHT22;54688;52.376;16.744;2022-07-23T09:26:50;19.8;78.9
67893;DHT22;54688;52.376;16.744;2022-07-23T09:29:55;19.8;78.7
67893;DHT22;54688;52.376;16.744;2022-07-23T09:33:06;19.9;78.8
67893;DHT22;54688;52.376;16.744;2022-07-23T09:36:10;19.9;78.6
67893;DHT22;54688;52.376;16.744;2022-07-23T09:39:13;19.9;77.7
67893;DHT22;54688;52.376;16.744;2022-07-23T09:42:17;19.9;77.6
67893;DHT22;54688;52.376;16.744;2022-07-23T09:45:21;19.9;77.2
67893;DHT22;54688;52.376;16.744;2022-07-23T09:48:23;19.9;76.2
67893;DHT22;54688;52.376;16.744;2022-07-23T09:51:26;20;76.5
67893;DHT22;54688;52.376;16.744;2022-07-23T09:54:31;20;76.1
67893;DHT22;54688;52.376;16.744;2022-07-23T09:57:34;20;76.1
67893;DHT22;54688;52.376;16.744;2022-07-23T10:00:37;20;76.8
67893;DHT22;54688;52.376;16.744;2022-07-23T10:03:39;20.1;75.7
67893;DHT22;54688;52.376;16.744;2022-07-23T10:06:42;20;74.5
67893;DHT22;54688;52.376;16.744;2022-07-23T10:09:46;20.1;74.2
67893;DHT22;54688;52.376;16.744;2022-07-23T10:12:52;20;73.6
67893;DHT22;54688;52.376;16.744;2022-07-23T10:15:56;19.9;74.4
67893;DHT22;54688;52.376;16.744;2022-07-23T10:18:58;19.8;74.9
67893;DHT22;54688;52.376;16.744;2022-07-23T10:22:01;19.8;75.8
67893;DHT22;54688;52.376;16.744;2022-07-23T10:25:08;19.8;75.7
67893;DHT22;54688;52.376;16.744;2022-07-23T10:28:19;19.9;75.8
67893;DHT22;54688;52.376;16.744;2022-07-23T10:31:35;19.9;75.4
67893;DHT22;54688;52.376;16.744;2022-07-23T10:34:50;20.1;75
67893;DHT22;54688;52.376;16.744;2022-07-23T10:38:01;20.2;72.7
67893;DHT22;54688;52.376;16.744;2022-07-23T10:41:05;20.2;73.6
67893;DHT22;54688;52.376;16.744;2022-07-23T10:44:08;20.2;72.2
67893;DHT22;54688;52.376;16.744;2022-07-23T10:47:12;20.2;72.6
67893;DHT22;54688;52.376;16.744;2022-07-23T10:50:23;20.3;73.4
67893;DHT22;54688;52.376;16.744;2022-07-23T10:53:26;20.3;72.8
67893;DHT22;54688;52.376;16.744;2022-07-23T10:57:32;20.4;72.3
67893;DHT22;54688;52.376;16.744;2022-07-23T11:00:50;20.4;72.4
67893;DHT22;54688;52.376;16.744;2022-07-23T11:03:55;20.5;70.6
67893;DHT22;54688;52.376;16.744;2022-07-23T11:07:14;20.5;71
67893;DHT22;54688;52.376;16.744;2022-07-23T11:10:31;20.6;72
67893;DHT22;54688;52.376;16.744;2022-07-23T11:13:40;20.8;72.7
67893;DHT22;54688;52.376;16.744;2022-07-23T11:16:47;21;70.6
67893;DHT22;54688;52.376;16.744;2022-07-23T11:20:20;21.1;70.3
67893;DHT22;54688;52.376;16.744;2022-07-23T11:23:25;21.3;69.6
67893;DHT22;54688;52.376;16.744;2022-07-23T11:27:02;21.4;69.5
67893;DHT22;54688;52.376;16.744;2022-07-23T11:30:06;21.5;69.8
67893;DHT22;54688;52.376;16.744;2022-07-23T11:33:17;21.6;70.1
67893;DHT22;54688;52.376;16.744;2022-07-23T11:36:22;21.7;68.5
67893;DHT22;54688;52.376;16.744;2022-07-23T11:39:24;21.8;69.2
67893;DHT22;54688;52.376;16.744;2022-07-23T11:42:28;22.1;68.6
67893;DHT22;54688;52.376;16.744;2022-07-23T11:45:32;22.3;67.1
67893;DHT22;54688;52.376;16.744;2022-07-23T11:48:37;22.4;66.6
67893;DHT22;54688;52.376;16.744;2022-07-23T11:51:39;22.5;65
67893;DHT22;54688;52.376;16.744;2022-07-23T11:54:46;22.5;61.8
67893;DHT22;54688;52.376;16.744;2022-07-23T11:57:50;22.4;61.9
67893;DHT22;54688;52.376;16.744;2022-07-23T12:00:54;22.3;61.9
67893;DHT22;54688;52.376;16.744;2022-07-23T12:03:58;22.3;63.6
67893;DHT22;54688;52.376;16.744;2022-07-23T12:06:59;22.3;62.9
67893;DHT22;54688;52.376;16.744;2022-07-23T12:10:04;22.3;61.8
67893;DHT22;54688;52.376;16.744;2022-07-23T12:13:12;22.2;62.2
67893;DHT22;54688;52.376;16.744;2022-07-23T12:16:19;22.2;61.9
67893;DHT22;54688;52.376;16.744;2022-07-23T12:19:22;22.2;62.3
67893;DHT22;54688;52.376;16.744;2022-07-23T12:22:26;22.2;62
67893;DHT22;54688;52.376;16.744;2022-07-23T12:25:37;22.2;62.4
67893;DHT22;54688;52.376;16.744;2022-07-23T12:28:51;22.1;62.9
67893;DHT22;54688;52.376;16.744;2022-07-23T12:31:54;22.3;61.9
67893;DHT22;54688;52.376;16.744;2022-07-23T12:35:04;22.4;61.5
67893;DHT22;54688;52.376;16.744;2022-07-23T12:38:10;22.6;60.9
67893;DHT22;54688;52.376;16.744;2022-07-23T12:41:14;22.7;60.1
67893;DHT22;54688;52.376;16.744;2022-07-23T12:44:16;23;58.6
67893;DHT22;54688;52.376;16.744;2022-07-23T12:47:19;23.1;59.9
67893;DHT22;54688;52.376;16.744;2022-07-23T12:50:37;23.2;59.4
67893;DHT22;54688;52.376;16.744;2022-07-23T12:53:43;23.3;58.7
67893;DHT22;54688;52.376;16.744;2022-07-23T12:56:48;23.3;57.9
67893;DHT22;54688;52.376;16.744;2022-07-23T12:59:50;23.2;58.5
67893;DHT22;54688;52.376;16.744;2022-07-23T13:02:53;23.2;58.6
67893;DHT22;54688;52.376;16.744;2022-07-23T13:05:55;23.3;57.1
67893;DHT22;54688;52.376;16.744;2022-07-23T13:08:59;23.5;56.7
67893;DHT22;54688;52.376;16.744;2022-07-23T13:12:01;23.6;57.2
67893;DHT22;54688;52.376;16.744;2022-07-23T13:15:05;23.7;57.2
67893;DHT22;54688;52.376;16.744;2022-07-23T13:18:10;23.9;56.3
67893;DHT22;54688;52.376;16.744;2022-07-23T13:21:12;24;55.7
67893;DHT22;54688;52.376;16.744;2022-07-23T13:24:14;23.9;55.2
67893;DHT22;54688;52.376;16.744;2022-07-23T13:27:16;23.7;55.4
67893;DHT22;54688;52.376;16.744;2022-07-23T13:30:19;23.5;54.1
67893;DHT22;54688;52.376;16.744;2022-07-23T13:33:21;23.4;56.4
67893;DHT22;54688;52.376;16.744;2022-07-23T13:36:25;23.4;57.8
67893;DHT22;54688;52.376;16.744;2022-07-23T13:39:27;23.4;57.2
67893;DHT22;54688;52.376;16.744;2022-07-23T13:42:30;23.5;56.2
67893;DHT22;54688;52.376;16.744;2022-07-23T13:45:32;23.4;55.5
67893;DHT22;54688;52.376;16.744;2022-07-23T13:48:34;23.4;55.9
67893;DHT22;54688;52.376;16.744;2022-07-23T13:51:37;23.5;54.4
67893;DHT22;54688;52.376;16.744;2022-07-23T13:54:39;23.6;55.2
67893;DHT22;54688;52.376;16.744;2022-07-23T13:57:41;23.6;55.2
67893;DHT22;54688;52.376;16.744;2022-07-23T14:00:44;23.6;55.3
67893;DHT22;54688;52.376;16.744;2022-07-23T14:03:48;23.5;55.7
67893;DHT22;54688;52.376;16.744;2022-07-23T14:06:50;23.6;55.7
67893;DHT22;54688;52.376;16.744;2022-07-23T14:09:53;23.6;54.4
67893;DHT22;54688;52.376;16.744;2022-07-23T14:12:55;23.6;54.4
67893;DHT22;54688;52.376;16.744;2022-07-23T14:15:58;23.6;54.7
67893;DHT22;54688;52.376;16.744;2022-07-23T14:19:02;23.5;54.5
67893;DHT22;54688;52.376;16.744;2022-07-23T14:22:04;23.5;55
67893;DHT22;54688;52.376;16.744;2022-07-23T14:25:07;23.5;54.9
67893;DHT22;54688;52.376;16.744;2022-07-23T14:28:11;23.4;55.5
67893;DHT22;54688;52.376;16.744;2022-07-23T14:31:14;23.3;56.9
67893;DHT22;54688;52.376;16.744;2022-07-23T14:34:16;23.2;56.5
67893;DHT22;54688;52.376;16.744;2022-07-23T14:37:18;23.1;57.3
67893;DHT22;54688;52.376;16.744;2022-07-23T14:40:21;23;57.9
67893;DHT22;54688;52.376;16.744;2022-07-23T14:43:24;22.9;58.5
67893;DHT22;54688;52.376;16.744;2022-07-23T14:46:26;22.8;58
67893;DHT22;54688;52.376;16.744;2022-07-23T14:49:28;22.8;58.5
67893;DHT22;54688;52.376;16.744;2022-07-23T14:52:30;23;57.8
67893;DHT22;54688;52.376;16.744;2022-07-23T14:55:33;23.3;56.1
67893;DHT22;54688;52.376;16.744;2022-07-23T14:58:36;23.7;54.3
67893;DHT22;54688;52.376;16.744;2022-07-23T15:01:38;24.1;53.4
67893;DHT22;54688;52.376;16.744;2022-07-23T15:04:42;24.4;53.1
67893;DHT22;54688;52.376;16.744;2022-07-23T15:07:44;24.8;51.4
67893;DHT22;54688;52.376;16.744;2022-07-23T15:10:47;25.2;51.5
67893;DHT22;54688;52.376;16.744;2022-07-23T15:13:50;25.4;50.5
67893;DHT22;54688;52.376;16.744;2022-07-23T15:16:52;25.5;49.6
67893;DHT22;54688;52.376;16.744;2022-07-23T15:19:56;25.4;50.1
67893;DHT22;54688;52.376;16.744;2022-07-23T15:22:58;25.1;49.8
67893;DHT22;54688;52.376;16.744;2022-07-23T15:26:00;24.8;51.7
67893;DHT22;54688;52.376;16.744;2022-07-23T15:29:03;24.5;51.8
67893;DHT22;54688;52.376;16.744;2022-07-23T15:32:05;24.2;52
67893;DHT22;54688;52.376;16.744;2022-07-23T15:35:08;23.9;53.2
67893;DHT22;54688;52.376;16.744;2022-07-23T15:38:10;23.8;53.5
67893;DHT22;54688;52.376;16.744;2022-07-23T15:41:13;23.5;54.1
67893;DHT22;54688;52.376;16.744;2022-07-23T15:44:16;23.3;54.7
67893;DHT22;54688;52.376;16.744;2022-07-23T15:47:18;23.1;54.9
67893;DHT22;54688;52.376;16.744;2022-07-23T15:50:21;23;56.4
67893;DHT22;54688;52.376;16.744;2022-07-23T15:53:24;22.9;56.2
67893;DHT22;54688;52.376;16.744;2022-07-23T15:56:27;22.9;57.1
67893;DHT22;54688;52.376;16.744;2022-07-23T15:59:29;22.8;56.6
67893;DHT22;54688;52.376;16.744;2022-07-23T16:02:31;22.7;57.9
67893;DHT22;54688;52.376;16.744;2022-07-23T16:05:33;22.6;57.5
67893;DHT22;54688;52.376;16.744;2022-07-23T16:08:35;22.6;56.9
67893;DHT22;54688;52.376;16.744;2022-07-23T16:11:38;22.4;56.3
67893;DHT22;54688;52.376;16.744;2022-07-23T16:14:41;22.4;56.8
67893;DHT22;54688;52.376;16.744;2022-07-23T16:17:43;22.3;56.2
67893;DHT22;54688;52.376;16.744;2022-07-23T16:20:46;22.3;56.6
67893;DHT22;54688;52.376;16.744;2022-07-23T16:23:49;22.2;56.2
67893;DHT22;54688;52.376;16.744;2022-07-23T16:26:51;22.1;56.8
67893;DHT22;54688;52.376;16.744;2022-07-23T16:29:53;22;58.4
67893;DHT22;54688;52.376;16.744;2022-07-23T16:32:56;22;57.3
67893;DHT22;54688;52.376;16.744;2022-07-23T16:35:58;21.9;57.9
67893;DHT22;54688;52.376;16.744;2022-07-23T16:39:00;21.9;58.3
67893;DHT22;54688;52.376;16.744;2022-07-23T16:42:03;21.9;58.4
67893;DHT22;54688;52.376;16.744;2022-07-23T16:45:06;21.8;58.6
67893;DHT22;54688;52.376;16.744;2022-07-23T16:48:09;21.7;58.8
67893;DHT22;54688;52.376;16.744;2022-07-23T16:51:11;21.6;59.3
67893;DHT22;54688;52.376;16.744;2022-07-23T16:54:13;21.6;59.4
67893;DHT22;54688;52.376;16.744;2022-07-23T16:57:15;21.5;58.7
67893;DHT22;54688;52.376;16.744;2022-07-23T17:00:18;21.5;59.5
67893;DHT22;54688;52.376;16.744;2022-07-23T17:03:20;21.4;59.3
67893;DHT22;54688;52.376;16.744;2022-07-23T17:06:22;21.4;60.3
67893;DHT22;54688;52.376;16.744;2022-07-23T17:09:25;21.4;60.3
67893;DHT22;54688;52.376;16.744;2022-07-23T17:12:27;21.4;59.7
67893;DHT22;54688;52.376;16.744;2022-07-23T17:15:29;21.5;59.8
67893;DHT22;54688;52.376;16.744;2022-07-23T17:18:31;21.6;58.8
67893;DHT22;54688;52.376;16.744;2022-07-23T17:21:35;21.7;59
67893;DHT22;54688;52.376;16.744;2022-07-23T17:24:37;21.8;58.3
67893;DHT22;54688;52.376;16.744;2022-07-23T17:27:40;22;59.4
67893;DHT22;54688;52.376;16.744;2022-07-23T17:30:43;22.3;56.9
67893;DHT22;54688;52.376;16.744;2022-07-23T17:33:45;22.5;56.8
67893;DHT22;54688;52.376;16.744;2022-07-23T17:36:47;22.7;55.7
67893;DHT22;54688;52.376;16.744;2022-07-23T17:39:50;22.9;53.3
67893;DHT22;54688;52.376;16.744;2022-07-23T17:42:52;23;53.2
67893;DHT22;54688;52.376;16.744;2022-07-23T17:45:54;23.1;51
67893;DHT22;54688;52.376;16.744;2022-07-23T17:48:56;23.1;50.4
67893;DHT22;54688;52.376;16.744;2022-07-23T17:51:59;22.9;50.6
67893;DHT22;54688;52.376;16.744;2022-07-23T17:55:01;22.7;50.8
67893;DHT22;54688;52.376;16.744;2022-07-23T17:58:04;22.4;50.2
67893;DHT22;54688;52.376;16.744;2022-07-23T18:01:06;22.2;51.3
67893;DHT22;54688;52.376;16.744;2022-07-23T18:04:09;22;51.8
67893;DHT22;54688;52.376;16.744;2022-07-23T18:07:11;21.8;51.7
67893;DHT22;54688;52.376;16.744;2022-07-23T18:10:14;21.7;51.3
67893;DHT22;54688;52.376;16.744;2022-07-23T18:13:17;21.6;52.5
67893;DHT22;54688;52.376;16.744;2022-07-23T18:16:19;21.5;52.3
67893;DHT22;54688;52.376;16.744;2022-07-23T18:19:22;21.4;52.1
67893;DHT22;54688;52.376;16.744;2022-07-23T18:22:26;21.4;53.1
67893;DHT22;54688;52.376;16.744;2022-07-23T18:25:28;21.3;52.6
67893;DHT22;54688;52.376;16.744;2022-07-23T18:28:30;21.2;53.1
67893;DHT22;54688;52.376;16.744;2022-07-23T18:31:33;21.1;52.6
67893;DHT22;54688;52.376;16.744;2022-07-23T18:34:35;21;52.8
67893;DHT22;54688;52.376;16.744;2022-07-23T18:37:38;20.9;53
67893;DHT22;54688;52.376;16.744;2022-07-23T18:40:40;20.8;53.7
67893;DHT22;54688;52.376;16.744;2022-07-23T18:43:43;20.6;53.8
67893;DHT22;54688;52.376;16.744;2022-07-23T18:46:45;20.5;54.7
67893;DHT22;54688;52.376;16.744;2022-07-23T18:49:47;20.4;53.7
67893;DHT22;54688;52.376;16.744;2022-07-23T18:52:50;20.2;55.5
67893;DHT22;54688;52.376;16.744;2022-07-23T18:55:52;20.1;55.7
67893;DHT22;54688;52.376;16.744;2022-07-23T18:58:54;19.9;55.8
67893;DHT22;54688;52.376;16.744;2022-07-23T19:01:57;19.7;57
67893;DHT22;54688;52.376;16.744;2022-07-23T19:04:59;19.6;56.5
67893;DHT22;54688;52.376;16.744;2022-07-23T19:08:02;19.5;57.9
67893;DHT22;54688;52.376;16.744;2022-07-23T19:11:05;19.4;58.6
67893;DHT22;54688;52.376;16.744;2022-07-23T19:14:07;19.2;58.8
67893;DHT22;54688;52.376;16.744;2022-07-23T19:17:10;19.1;59.3
67893;DHT22;54688;52.376;16.744;2022-07-23T19:20:12;19;59.9
67893;DHT22;54688;52.376;16.744;2022-07-23T19:23:16;18.9;60.2
67893;DHT22;54688;52.376;16.744;2022-07-23T19:26:18;18.8;60.8
67893;DHT22;54688;52.376;16.744;2022-07-23T19:29:20;18.7;61.4
67893;DHT22;54688;52.376;16.744;2022-07-23T19:32:23;18.5;61.5
67893;DHT22;54688;52.376;16.744;2022-07-23T19:35:25;18.4;61.9
67893;DHT22;54688;52.376;16.744;2022-07-23T19:38:28;18.4;62.5
67893;DHT22;54688;52.376;16.744;2022-07-23T19:41:30;18.3;63.4
67893;DHT22;54688;52.376;16.744;2022-07-23T19:44:32;18.2;63.3
67893;DHT22;54688;52.376;16.744;2022-07-23T19:47:35;18.1;63.8